sensor_id;sensor_type;location;lat;lon;timestamp;temperature;humidity
18083;DHT22;9168;51.194;6.840;2023-06-10T00:01:16;19.90;99.90
18083;DHT22;9168;51.194;6.840;2023-06-10T00:03:44;19.90;99.90
18083;DHT22;9168;51.194;6.840;2023-06-10T00:06:13;19.90;99.90
18083;DHT22;9168;51.194;6.840;2023-06-10T00:08:40;19.80;99.90
18083;DHT22;9168;51.194;6.840;2023-06-10T00:11:07;19.80;99.90
18083;DHT22;9168;51.194;6.840;2023-06-10T00:13:35;19.80;99.90
18083;DHT22;9168;51.194;6.840;2023-06-10T00:16:04;19.80;99.90
18083;DHT22;9168;51.194;6.840;2023-06-10T00:18:33;19.70;99.90
18083;DHT22;9168;51.194;6.840;2023-06-10T00:21:02;19.70;99.90
18083;DHT22;9168;51.194;6.840;2023-06-10T00:23:30;19.60;99.90
18083;DHT22;9168;51.194;6.840;2023-06-10T00:25:58;19.60;99.90
18083;DHT22;9168;51.194;6.840;2023-06-10T00:28:25;19.50;99.90
18083;DHT22;9168;51.194;6.840;2023-06-10T00:30:52;19.60;99.90
18083;DHT22;9168;51.194;6.840;2023-06-10T00:33:20;19.50;99.90
18083;DHT22;9168;51.194;6.840;2023-06-10T00:35:47;19.50;99.90
18083;DHT22;9168;51.194;6.840;2023-06-10T00:38:14;19.40;99.90
18083;DHT22;9168;51.194;6.840;2023-06-10T00:40:41;19.40;99.90
18083;DHT22;9168;51.194;6.840;2023-06-10T00:43:08;19.40;99.90
18083;DHT22;9168;51.194;6.840;2023-06-10T00:45:35;19.40;99.90
18083;DHT22;9168;51.194;6.840;2023-06-10T00:48:04;19.30;99.90
18083;DHT22;9168;51.194;6.840;2023-06-10T00:50:32;19.30;99.90
18083;DHT22;9168;51.194;6.840;2023-06-10T00:53:00;19.20;99.90
18083;DHT22;9168;51.194;6.840;2023-06-10T00:55:27;19.20;99.90
18083;DHT22;9168;51.194;6.840;2023-06-10T00:57:54;19.20;99.90
18083;DHT22;9168;51.194;6.840;2023-06-10T01:00:21;19.10;99.90
18083;DHT22;9168;51.194;6.840;2023-06-10T01:02:48;19.10;99.90
18083;DHT22;9168;51.194;6.840;2023-06-10T01:05:18;19.10;99.90
18083;DHT22;9168;51.194;6.840;2023-06-10T01:07:50;19.00;99.90
18083;DHT22;9168;51.194;6.840;2023-06-10T01:10:22;19.00;99.90
18083;DHT22;9168;51.194;6.840;2023-06-10T01:12:55;19.00;99.90
18083;DHT22;9168;51.194;6.840;2023-06-10T01:15:25;19.00;99.90
18083;DHT22;9168;51.194;6.840;2023-06-10T01:17:56;18.90;99.90
18083;DHT22;9168;51.194;6.840;2023-06-10T01:20:23;18.80;99.90
18083;DHT22;9168;51.194;6.840;2023-06-10T01:22:53;18.80;99.90
18083;DHT22;9168;51.194;6.840;2023-06-10T01:25:21;18.80;99.90
18083;DHT22;9168;51.194;6.840;2023-06-10T01:27:55;18.80;99.90
18083;DHT22;9168;51.194;6.840;2023-06-10T01:30:28;18.70;99.90
18083;DHT22;9168;51.194;6.840;2023-06-10T01:32:59;18.60;99.90
18083;DHT22;9168;51.194;6.840;2023-06-10T01:35:30;18.60;99.90
18083;DHT22;9168;51.194;6.840;2023-06-10T01:38:00;18.60;99.90
18083;DHT22;9168;51.194;6.840;2023-06-10T01:40:29;18.60;99.90
18083;DHT22;9168;51.194;6.840;2023-06-10T01:42:56;18.60;99.90
18083;DHT22;9168;51.194;6.840;2023-06-10T01:45:23;18.60;99.90
18083;DHT22;9168;51.194;6.840;2023-06-10T01:47:50;18.50;99.90
18083;DHT22;9168;51.194;6.840;2023-06-10T01:50:17;18.50;99.90
18083;DHT22;9168;51.194;6.840;2023-06-10T01:52:44;18.40;99.90
18083;DHT22;9168;51.194;6.840;2023-06-10T01:55:13;18.40;99.90
18083;DHT22;9168;51.194;6.840;2023-06-10T01:57:40;18.40;99.90
18083;DHT22;9168;51.194;6.840;2023-06-10T02:00:08;18.40;99.90
18083;DHT22;9168;51.194;6.840;2023-06-10T02:02:35;18.30;99.90
18083;DHT22;9168;51.194;6.840;2023-06-10T02:05:02;18.30;99.90
18083;DHT22;9168;51.194;6.840;2023-06-10T02:07:30;18.30;99.90
18083;DHT22;9168;51.194;6.840;2023-06-10T02:09:57;18.30;99.90
18083;DHT22;9168;51.194;6.840;2023-06-10T02:12:25;18.20;99.90
18083;DHT22;9168;51.194;6.840;2023-06-10T02:14:52;18.20;99.90
18083;DHT22;9168;51.194;6.840;2023-06-10T02:17:19;18.20;99.90
18083;DHT22;9168;51.194;6.840;2023-06-10T02:19:46;18.10;99.90
18083;DHT22;9168;51.194;6.840;2023-06-10T02:22:19;18.10;99.90
18083;DHT22;9168;51.194;6.840;2023-06-10T02:24:47;18.00;99.90
18083;DHT22;9168;51.194;6.840;2023-06-10T02:27:14;18.00;99.90
18083;DHT22;9168;51.194;6.840;2023-06-10T02:29:43;17.90;99.90
18083;DHT22;9168;51.194;6.840;2023-06-10T02:32:10;17.90;99.90
18083;DHT22;9168;51.194;6.840;2023-06-10T02:34:37;18.00;99.90
18083;DHT22;9168;51.194;6.840;2023-06-10T02:37:04;18.00;99.90
18083;DHT22;9168;51.194;6.840;2023-06-10T02:39:31;17.90;99.90
18083;DHT22;9168;51.194;6.840;2023-06-10T02:41:58;17.90;99.90
18083;DHT22;9168;51.194;6.840;2023-06-10T02:44:25;17.90;99.90
18083;DHT22;9168;51.194;6.840;2023-06-10T02:46:53;17.90;99.90
18083;DHT22;9168;51.194;6.840;2023-06-10T02:49:20;17.80;99.90
18083;DHT22;9168;51.194;6.840;2023-06-10T02:51:47;17.80;99.90
18083;DHT22;9168;51.194;6.840;2023-06-10T02:54:13;17.70;99.90
18083;DHT22;9168;51.194;6.840;2023-06-10T02:56:42;17.70;99.90
18083;DHT22;9168;51.194;6.840;2023-06-10T02:59:08;17.70;99.90
18083;DHT22;9168;51.194;6.840;2023-06-10T03:01:36;17.60;99.90
18083;DHT22;9168;51.194;6.840;2023-06-10T03:04:05;17.60;99.90
18083;DHT22;9168;51.194;6.840;2023-06-10T03:06:32;17.60;99.90
18083;DHT22;9168;51.194;6.840;2023-06-10T03:09:01;17.50;99.90
18083;DHT22;9168;51.194;6.840;2023-06-10T03:11:28;17.50;99.90
18083;DHT22;9168;51.194;6.840;2023-06-10T03:13:55;17.50;99.90
18083;DHT22;9168;51.194;6.840;2023-06-10T03:16:22;17.40;99.90
18083;DHT22;9168;51.194;6.840;2023-06-10T03:18:50;17.40;99.90
18083;DHT22;9168;51.194;6.840;2023-06-10T03:21:22;17.50;99.90
18083;DHT22;9168;51.194;6.840;2023-06-10T03:23:49;17.50;99.90
18083;DHT22;9168;51.194;6.840;2023-06-10T03:26:15;17.50;99.90
18083;DHT22;9168;51.194;6.840;2023-06-10T03:28:42;17.40;99.90
18083;DHT22;9168;51.194;6.840;2023-06-10T03:31:09;17.50;99.90
18083;DHT22;9168;51.194;6.840;2023-06-10T03:33:36;17.40;99.90
18083;DHT22;9168;51.194;6.840;2023-06-10T03:36:05;17.40;99.90
18083;DHT22;9168;51.194;6.840;2023-06-10T03:38:33;17.40;99.90
18083;DHT22;9168;51.194;6.840;2023-06-10T03:41:00;17.40;99.90
18083;DHT22;9168;51.194;6.840;2023-06-10T03:43:27;17.40;99.90
18083;DHT22;9168;51.194;6.840;2023-06-10T03:45:54;17.40;99.90
18083;DHT22;9168;51.194;6.840;2023-06-10T03:48:21;17.40;99.90
18083;DHT22;9168;51.194;6.840;2023-06-10T03:50:47;17.30;99.90
18083;DHT22;9168;51.194;6.840;2023-06-10T03:53:16;17.30;99.90
18083;DHT22;9168;51.194;6.840;2023-06-10T03:55:44;17.30;99.90
18083;DHT22;9168;51.194;6.840;2023-06-10T03:58:11;17.30;99.90
18083;DHT22;9168;51.194;6.840;2023-06-10T04:00:40;17.30;99.90
18083;DHT22;9168;51.194;6.840;2023-06-10T04:03:08;17.30;99.90
18083;DHT22;9168;51.194;6.840;2023-06-10T04:05:40;17.30;99.90
18083;DHT22;9168;51.194;6.840;2023-06-10T04:08:06;17.30;99.90
18083;DHT22;9168;51.194;6.840;2023-06-10T04:10:33;17.30;99.90
18083;DHT22;9168;51.194;6.840;2023-06-10T04:13:02;17.30;99.90
18083;DHT22;9168;51.194;6.840;2023-06-10T04:15:29;17.20;99.90
18083;DHT22;9168;51.194;6.840;2023-06-10T04:17:58;17.20;99.90
18083;DHT22;9168;51.194;6.840;2023-06-10T04:20:25;17.20;99.90
18083;DHT22;9168;51.194;6.840;2023-06-10T04:22:52;17.20;99.90
18083;DHT22;9168;51.194;6.840;2023-06-10T04:25:19;17.20;99.90
18083;DHT22;9168;51.194;6.840;2023-06-10T04:27:46;17.20;99.90
18083;DHT22;9168;51.194;6.840;2023-06-10T04:30:16;17.20;99.90
18083;DHT22;9168;51.194;6.840;2023-06-10T04:32:43;17.30;99.90
18083;DHT22;9168;51.194;6.840;2023-06-10T04:35:12;17.30;99.90
18083;DHT22;9168;51.194;6.840;2023-06-10T04:37:39;17.30;99.90
18083;DHT22;9168;51.194;6.840;2023-06-10T04:40:07;17.30;99.90
18083;DHT22;9168;51.194;6.840;2023-06-10T04:42:35;17.30;99.90
18083;DHT22;9168;51.194;6.840;2023-06-10T04:45:02;17.30;99.90
18083;DHT22;9168;51.194;6.840;2023-06-10T04:47:30;17.40;99.90
18083;DHT22;9168;51.194;6.840;2023-06-10T04:49:59;17.40;99.90
18083;DHT22;9168;51.194;6.840;2023-06-10T04:52:26;17.40;99.90
18083;DHT22;9168;51.194;6.840;2023-06-10T04:54:53;17.40;99.90
18083;DHT22;9168;51.194;6.840;2023-06-10T04:57:20;17.50;99.90
18083;DHT22;9168;51.194;6.840;2023-06-10T04:59:47;17.50;99.90
18083;DHT22;9168;51.194;6.840;2023-06-10T05:02:14;17.60;99.90
18083;DHT22;9168;51.194;6.840;2023-06-10T05:04:42;17.60;99.90
18083;DHT22;9168;51.194;6.840;2023-06-10T05:07:12;17.70;99.90
18083;DHT22;9168;51.194;6.840;2023-06-10T05:09:39;17.70;99.90
18083;DHT22;9168;51.194;6.840;2023-06-10T05:12:06;17.80;99.90
18083;DHT22;9168;51.194;6.840;2023-06-10T05:14:34;17.80;99.90
18083;DHT22;9168;51.194;6.840;2023-06-10T05:17:01;17.80;99.90
18083;DHT22;9168;51.194;6.840;2023-06-10T05:19:28;17.90;99.90
18083;DHT22;9168;51.194;6.840;2023-06-10T05:21:56;17.90;99.90
18083;DHT22;9168;51.194;6.840;2023-06-10T05:24:23;18.00;99.90
18083;DHT22;9168;51.194;6.840;2023-06-10T05:26:50;18.00;99.90
18083;DHT22;9168;51.194;6.840;2023-06-10T05:29:17;18.10;99.90
18083;DHT22;9168;51.194;6.840;2023-06-10T05:31:43;18.10;99.90
18083;DHT22;9168;51.194;6.840;2023-06-10T05:34:13;18.20;99.90
18083;DHT22;9168;51.194;6.840;2023-06-10T05:36:40;18.30;99.90
18083;DHT22;9168;51.194;6.840;2023-06-10T05:39:09;18.30;99.90
18083;DHT22;9168;51.194;6.840;2023-06-10T05:41:36;18.30;99.90
18083;DHT22;9168;51.194;6.840;2023-06-10T05:44:03;18.50;99.90
18083;DHT22;9168;51.194;6.840;2023-06-10T05:46:31;18.50;99.90
18083;DHT22;9168;51.194;6.840;2023-06-10T05:48:57;18.60;99.90
18083;DHT22;9168;51.194;6.840;2023-06-10T05:51:24;18.70;99.90
18083;DHT22;9168;51.194;6.840;2023-06-10T05:53:53;18.70;99.90
18083;DHT22;9168;51.194;6.840;2023-06-10T05:56:21;18.80;99.90
18083;DHT22;9168;51.194;6.840;2023-06-10T05:58:48;18.90;99.90
18083;DHT22;9168;51.194;6.840;2023-06-10T06:01:15;18.90;99.90
18083;DHT22;9168;51.194;6.840;2023-06-10T06:03:42;19.00;99.90
18083;DHT22;9168;51.194;6.840;2023-06-10T06:06:09;19.10;99.90
18083;DHT22;9168;51.194;6.840;2023-06-10T06:08:36;19.20;99.90
18083;DHT22;9168;51.194;6.840;2023-06-10T06:11:03;19.30;99.90
18083;DHT22;9168;51.194;6.840;2023-06-10T06:13:31;19.30;99.90
18083;DHT22;9168;51.194;6.840;2023-06-10T06:15:58;19.40;99.90
18083;DHT22;9168;51.194;6.840;2023-06-10T06:18:25;19.40;99.90
18083;DHT22;9168;51.194;6.840;2023-06-10T06:20:52;19.50;99.90
18083;DHT22;9168;51.194;6.840;2023-06-10T06:23:19;19.60;99.90
18083;DHT22;9168;51.194;6.840;2023-06-10T06:25:46;19.70;99.90
18083;DHT22;9168;51.194;6.840;2023-06-10T06:28:13;19.70;99.90
18083;DHT22;9168;51.194;6.840;2023-06-10T06:30:41;19.80;99.90
18083;DHT22;9168;51.194;6.840;2023-06-10T06:33:08;19.90;99.90
18083;DHT22;9168;51.194;6.840;2023-06-10T06:35:35;19.90;99.90
18083;DHT22;9168;51.194;6.840;2023-06-10T06:38:03;20.00;99.90
18083;DHT22;9168;51.194;6.840;2023-06-10T06:40:30;20.10;99.90
18083;DHT22;9168;51.194;6.840;2023-06-10T06:42:57;20.10;99.90
18083;DHT22;9168;51.194;6.840;2023-06-10T06:45:24;20.10;99.90
18083;DHT22;9168;51.194;6.840;2023-06-10T06:47:52;20.20;99.90
18083;DHT22;9168;51.194;6.840;2023-06-10T06:50:19;20.30;99.90
18083;DHT22;9168;51.194;6.840;2023-06-10T06:52:46;20.30;99.90
18083;DHT22;9168;51.194;6.840;2023-06-10T06:55:13;20.40;99.90
18083;DHT22;9168;51.194;6.840;2023-06-10T06:57:40;20.40;99.90
18083;DHT22;9168;51.194;6.840;2023-06-10T07:00:07;20.50;99.90
18083;DHT22;9168;51.194;6.840;2023-06-10T07:02:35;20.60;99.90
18083;DHT22;9168;51.194;6.840;2023-06-10T07:05:04;20.60;99.90
18083;DHT22;9168;51.194;6.840;2023-06-10T07:07:30;20.70;99.90
18083;DHT22;9168;51.194;6.840;2023-06-10T07:09:57;20.80;99.90
18083;DHT22;9168;51.194;6.840;2023-06-10T07:12:24;20.80;99.90
18083;DHT22;9168;51.194;6.840;2023-06-10T07:14:52;20.90;99.90
18083;DHT22;9168;51.194;6.840;2023-06-10T07:17:19;20.90;99.90
18083;DHT22;9168;51.194;6.840;2023-06-10T07:19:46;21.00;99.90
18083;DHT22;9168;51.194;6.840;2023-06-10T07:22:14;21.00;99.90
18083;DHT22;9168;51.194;6.840;2023-06-10T07:24:41;21.10;99.90
18083;DHT22;9168;51.194;6.840;2023-06-10T07:27:09;21.20;99.90
18083;DHT22;9168;51.194;6.840;2023-06-10T07:29:35;21.30;99.90
18083;DHT22;9168;51.194;6.840;2023-06-10T07:32:03;21.30;99.90
18083;DHT22;9168;51.194;6.840;2023-06-10T07:34:30;21.40;99.90
18083;DHT22;9168;51.194;6.840;2023-06-10T07:37:00;21.50;99.90
18083;DHT22;9168;51.194;6.840;2023-06-10T07:39:28;21.60;99.90
18083;DHT22;9168;51.194;6.840;2023-06-10T07:41:55;21.60;99.90
18083;DHT22;9168;51.194;6.840;2023-06-10T07:44:22;21.60;99.90
18083;DHT22;9168;51.194;6.840;2023-06-10T07:46:49;21.70;99.90
18083;DHT22;9168;51.194;6.840;2023-06-10T07:49:16;21.80;99.90
18083;DHT22;9168;51.194;6.840;2023-06-10T07:51:43;21.90;99.90
18083;DHT22;9168;51.194;6.840;2023-06-10T07:54:10;21.90;99.90
18083;DHT22;9168;51.194;6.840;2023-06-10T07:56:40;22.00;99.90
18083;DHT22;9168;51.194;6.840;2023-06-10T07:59:07;22.10;99.90
18083;DHT22;9168;51.194;6.840;2023-06-10T08:01:33;22.10;99.90
18083;DHT22;9168;51.194;6.840;2023-06-10T08:04:01;22.20;99.90
18083;DHT22;9168;51.194;6.840;2023-06-10T08:06:28;22.20;99.90
18083;DHT22;9168;51.194;6.840;2023-06-10T08:08:55;22.30;99.90
18083;DHT22;9168;51.194;6.840;2023-06-10T08:11:22;22.40;99.90
18083;DHT22;9168;51.194;6.840;2023-06-10T08:13:50;22.40;99.90
18083;DHT22;9168;51.194;6.840;2023-06-10T08:16:17;22.50;99.90
18083;DHT22;9168;51.194;6.840;2023-06-10T08:18:44;22.60;99.90
18083;DHT22;9168;51.194;6.840;2023-06-10T08:21:11;22.70;99.90
18083;DHT22;9168;51.194;6.840;2023-06-10T08:23:38;22.80;99.90
18083;DHT22;9168;51.194;6.840;2023-06-10T08:26:04;22.90;99.90
18083;DHT22;9168;51.194;6.840;2023-06-10T08:28:31;23.00;99.90
18083;DHT22;9168;51.194;6.840;2023-06-10T08:31:00;23.10;99.90
18083;DHT22;9168;51.194;6.840;2023-06-10T08:33:27;23.20;99.90
18083;DHT22;9168;51.194;6.840;2023-06-10T08:35:54;23.30;99.90
18083;DHT22;9168;51.194;6.840;2023-06-10T08:38:21;23.30;99.90
18083;DHT22;9168;51.194;6.840;2023-06-10T08:40:48;23.40;99.90
18083;DHT22;9168;51.194;6.840;2023-06-10T08:43:20;23.50;99.90
18083;DHT22;9168;51.194;6.840;2023-06-10T08:45:49;23.50;99.90
18083;DHT22;9168;51.194;6.840;2023-06-10T08:48:19;23.60;99.90
18083;DHT22;9168;51.194;6.840;2023-06-10T08:50:47;23.60;99.90
18083;DHT22;9168;51.194;6.840;2023-06-10T08:53:18;23.70;99.90
18083;DHT22;9168;51.194;6.840;2023-06-10T08:55:49;23.80;99.90
18083;DHT22;9168;51.194;6.840;2023-06-10T08:58:18;23.80;99.90
18083;DHT22;9168;51.194;6.840;2023-06-10T09:00:45;23.80;99.90
18083;DHT22;9168;51.194;6.840;2023-06-10T09:03:12;23.90;99.90
18083;DHT22;9168;51.194;6.840;2023-06-10T09:05:41;24.00;99.90
18083;DHT22;9168;51.194;6.840;2023-06-10T09:08:08;24.10;99.90
18083;DHT22;9168;51.194;6.840;2023-06-10T09:10:35;24.10;99.90
18083;DHT22;9168;51.194;6.840;2023-06-10T09:13:02;24.20;99.90
18083;DHT22;9168;51.194;6.840;2023-06-10T09:15:29;24.30;99.90
18083;DHT22;9168;51.194;6.840;2023-06-10T09:17:56;24.40;99.90
18083;DHT22;9168;51.194;6.840;2023-06-10T09:20:23;24.50;99.90
18083;DHT22;9168;51.194;6.840;2023-06-10T09:22:52;24.50;99.90
18083;DHT22;9168;51.194;6.840;2023-06-10T09:25:19;24.70;99.90
18083;DHT22;9168;51.194;6.840;2023-06-10T09:27:47;24.80;99.90
18083;DHT22;9168;51.194;6.840;2023-06-10T09:30:26;24.90;99.90
18083;DHT22;9168;51.194;6.840;2023-06-10T09:32:54;25.00;99.90
18083;DHT22;9168;51.194;6.840;2023-06-10T09:35:22;25.00;99.90
18083;DHT22;9168;51.194;6.840;2023-06-10T09:37:53;25.00;99.90
18083;DHT22;9168;51.194;6.840;2023-06-10T09:40:20;25.10;99.90
18083;DHT22;9168;51.194;6.840;2023-06-10T09:42:52;25.20;99.90
18083;DHT22;9168;51.194;6.840;2023-06-10T09:45:20;25.30;99.90
18083;DHT22;9168;51.194;6.840;2023-06-10T09:47:51;25.40;99.90
18083;DHT22;9168;51.194;6.840;2023-06-10T09:50:18;25.50;99.90
18083;DHT22;9168;51.194;6.840;2023-06-10T09:52:46;25.50;99.90
18083;DHT22;9168;51.194;6.840;2023-06-10T09:55:14;25.60;99.90
18083;DHT22;9168;51.194;6.840;2023-06-10T09:57:42;25.70;99.90
18083;DHT22;9168;51.194;6.840;2023-06-10T10:00:14;25.80;99.90
18083;DHT22;9168;51.194;6.840;2023-06-10T10:02:45;25.90;99.90
18083;DHT22;9168;51.194;6.840;2023-06-10T10:05:13;26.00;99.90
18083;DHT22;9168;51.194;6.840;2023-06-10T10:07:41;26.10;99.90
18083;DHT22;9168;51.194;6.840;2023-06-10T10:10:08;26.30;99.90
18083;DHT22;9168;51.194;6.840;2023-06-10T10:12:38;26.50;99.90
18083;DHT22;9168;51.194;6.840;2023-06-10T10:15:06;26.70;99.90
18083;DHT22;9168;51.194;6.840;2023-06-10T10:17:34;27.00;99.90
18083;DHT22;9168;51.194;6.840;2023-06-10T10:20:05;27.10;99.90
18083;DHT22;9168;51.194;6.840;2023-06-10T10:22:38;27.20;99.90
18083;DHT22;9168;51.194;6.840;2023-06-10T10:25:10;27.40;99.90
18083;DHT22;9168;51.194;6.840;2023-06-10T10:27:43;27.50;99.90
18083;DHT22;9168;51.194;6.840;2023-06-10T10:30:11;27.60;99.90
18083;DHT22;9168;51.194;6.840;2023-06-10T10:32:43;27.60;99.90
18083;DHT22;9168;51.194;6.840;2023-06-10T10:35:17;27.70;99.90
18083;DHT22;9168;51.194;6.840;2023-06-10T10:37:47;28.10;99.90
18083;DHT22;9168;51.194;6.840;2023-06-10T10:40:15;28.60;99.90
18083;DHT22;9168;51.194;6.840;2023-06-10T10:42:44;28.70;99.90
18083;DHT22;9168;51.194;6.840;2023-06-10T10:45:11;28.60;99.90
18083;DHT22;9168;51.194;6.840;2023-06-10T10:47:39;28.40;99.90
18083;DHT22;9168;51.194;6.840;2023-06-10T10:50:14;28.40;99.90
18083;DHT22;9168;51.194;6.840;2023-06-10T10:52:53;28.30;99.90
18083;DHT22;9168;51.194;6.840;2023-06-10T10:55:20;28.20;99.90
18083;DHT22;9168;51.194;6.840;2023-06-10T10:57:55;28.00;99.90
18083;DHT22;9168;51.194;6.840;2023-06-10T11:00:28;27.80;99.90
18083;DHT22;9168;51.194;6.840;2023-06-10T11:03:05;27.60;99.90
18083;DHT22;9168;51.194;6.840;2023-06-10T11:05:36;27.50;99.90
18083;DHT22;9168;51.194;6.840;2023-06-10T11:08:05;27.40;99.90
18083;DHT22;9168;51.194;6.840;2023-06-10T11:10:33;27.30;99.90
18083;DHT22;9168;51.194;6.840;2023-06-10T11:13:06;27.20;99.90
18083;DHT22;9168;51.194;6.840;2023-06-10T11:15:33;27.60;99.90
18083;DHT22;9168;51.194;6.840;2023-06-10T11:18:11;28.20;99.90
18083;DHT22;9168;51.194;6.840;2023-06-10T11:20:46;29.00;99.90
18083;DHT22;9168;51.194;6.840;2023-06-10T11:23:41;29.80;99.90
18083;DHT22;9168;51.194;6.840;2023-06-10T11:26:15;29.90;99.90
18083;DHT22;9168;51.194;6.840;2023-06-10T11:29:06;29.70;99.90
18083;DHT22;9168;51.194;6.840;2023-06-10T11:31:39;29.40;99.90
18083;DHT22;9168;51.194;6.840;2023-06-10T11:34:07;29.30;99.90
18083;DHT22;9168;51.194;6.840;2023-06-10T11:36:36;29.60;99.90
18083;DHT22;9168;51.194;6.840;2023-06-10T11:39:06;29.60;99.90
18083;DHT22;9168;51.194;6.840;2023-06-10T11:41:34;29.40;99.90
18083;DHT22;9168;51.194;6.840;2023-06-10T11:44:02;29.00;99.90
18083;DHT22;9168;51.194;6.840;2023-06-10T11:46:31;28.60;99.90
18083;DHT22;9168;51.194;6.840;2023-06-10T11:48:58;28.20;99.90
18083;DHT22;9168;51.194;6.840;2023-06-10T11:51:27;27.90;99.90
18083;DHT22;9168;51.194;6.840;2023-06-10T11:53:55;28.10;99.90
18083;DHT22;9168;51.194;6.840;2023-06-10T11:56:22;28.00;99.90
18083;DHT22;9168;51.194;6.840;2023-06-10T11:58:53;27.90;99.90
18083;DHT22;9168;51.194;6.840;2023-06-10T12:01:20;27.80;99.90
18083;DHT22;9168;51.194;6.840;2023-06-10T12:03:56;27.70;99.90
18083;DHT22;9168;51.194;6.840;2023-06-10T12:06:23;27.40;99.90
18083;DHT22;9168;51.194;6.840;2023-06-10T12:08:50;27.20;99.90
18083;DHT22;9168;51.194;6.840;2023-06-10T12:11:17;27.10;99.90
18083;DHT22;9168;51.194;6.840;2023-06-10T12:13:46;26.90;99.90
18083;DHT22;9168;51.194;6.840;2023-06-10T12:16:14;26.70;99.90
18083;DHT22;9168;51.194;6.840;2023-06-10T12:18:43;26.60;99.90
18083;DHT22;9168;51.194;6.840;2023-06-10T12:21:19;26.50;99.90
18083;DHT22;9168;51.194;6.840;2023-06-10T12:24:06;26.30;99.90
18083;DHT22;9168;51.194;6.840;2023-06-10T12:26:37;26.30;99.90
18083;DHT22;9168;51.194;6.840;2023-06-10T12:29:22;26.20;99.90
18083;DHT22;9168;51.194;6.840;2023-06-10T12:31:57;26.20;99.90
18083;DHT22;9168;51.194;6.840;2023-06-10T12:34:31;26.20;99.90
18083;DHT22;9168;51.194;6.840;2023-06-10T12:37:00;26.10;99.90
18083;DHT22;9168;51.194;6.840;2023-06-10T12:39:30;26.20;99.90
18083;DHT22;9168;51.194;6.840;2023-06-10T12:41:59;26.30;99.90
18083;DHT22;9168;51.194;6.840;2023-06-10T12:44:33;26.60;99.90
18083;DHT22;9168;51.194;6.840;2023-06-10T12:47:06;27.10;99.90
18083;DHT22;9168;51.194;6.840;2023-06-10T12:49:34;27.30;99.90
18083;DHT22;9168;51.194;6.840;2023-06-10T12:52:03;27.60;99.90
18083;DHT22;9168;51.194;6.840;2023-06-10T12:54:30;27.70;99.90
18083;DHT22;9168;51.194;6.840;2023-06-10T12:56:57;28.10;99.90
18083;DHT22;9168;51.194;6.840;2023-06-10T12:59:24;28.50;99.90
18083;DHT22;9168;51.194;6.840;2023-06-10T13:01:51;28.80;99.90
18083;DHT22;9168;51.194;6.840;2023-06-10T13:04:19;29.30;99.90
18083;DHT22;9168;51.194;6.840;2023-06-10T13:06:47;29.80;99.90
18083;DHT22;9168;51.194;6.840;2023-06-10T13:09:16;30.20;99.90
18083;DHT22;9168;51.194;6.840;2023-06-10T13:11:43;30.60;99.90
18083;DHT22;9168;51.194;6.840;2023-06-10T13:14:10;31.00;99.90
18083;DHT22;9168;51.194;6.840;2023-06-10T13:16:37;30.80;98.50
18083;DHT22;9168;51.194;6.840;2023-06-10T13:19:05;30.60;97.80
18083;DHT22;9168;51.194;6.840;2023-06-10T13:21:32;30.20;98.80
18083;DHT22;9168;51.194;6.840;2023-06-10T13:23:59;30.00;99.70
18083;DHT22;9168;51.194;6.840;2023-06-10T13:26:28;29.60;99.90
18083;DHT22;9168;51.194;6.840;2023-06-10T13:28:55;29.30;99.90
18083;DHT22;9168;51.194;6.840;2023-06-10T13:31:22;29.00;99.90
18083;DHT22;9168;51.194;6.840;2023-06-10T13:33:48;28.70;99.90
18083;DHT22;9168;51.194;6.840;2023-06-10T13:36:15;28.40;99.90
18083;DHT22;9168;51.194;6.840;2023-06-10T13:38:42;28.10;99.90
18083;DHT22;9168;51.194;6.840;2023-06-10T13:41:09;27.90;99.90
18083;DHT22;9168;51.194;6.840;2023-06-10T13:43:39;27.70;99.90
18083;DHT22;9168;51.194;6.840;2023-06-10T13:46:06;27.60;99.90
18083;DHT22;9168;51.194;6.840;2023-06-10T13:48:33;27.50;99.90
18083;DHT22;9168;51.194;6.840;2023-06-10T13:51:00;27.30;99.90
18083;DHT22;9168;51.194;6.840;2023-06-10T13:53:27;27.30;99.90
18083;DHT22;9168;51.194;6.840;2023-06-10T13:55:54;27.20;99.90
18083;DHT22;9168;51.194;6.840;2023-06-10T13:58:21;27.20;99.90
18083;DHT22;9168;51.194;6.840;2023-06-10T14:00:49;27.10;99.90
18083;DHT22;9168;51.194;6.840;2023-06-10T14:03:16;27.10;99.90
18083;DHT22;9168;51.194;6.840;2023-06-10T14:05:43;27.00;99.90
18083;DHT22;9168;51.194;6.840;2023-06-10T14:08:10;26.90;99.90
18083;DHT22;9168;51.194;6.840;2023-06-10T14:10:38;26.90;99.90
18083;DHT22;9168;51.194;6.840;2023-06-10T14:13:05;26.80;99.90
18083;DHT22;9168;51.194;6.840;2023-06-10T14:15:32;26.80;99.90
18083;DHT22;9168;51.194;6.840;2023-06-10T14:18:00;26.80;99.90
18083;DHT22;9168;51.194;6.840;2023-06-10T14:20:27;26.80;99.90
18083;DHT22;9168;51.194;6.840;2023-06-10T14:22:57;26.70;99.90
18083;DHT22;9168;51.194;6.840;2023-06-10T14:25:24;26.70;99.90
18083;DHT22;9168;51.194;6.840;2023-06-10T14:27:51;26.70;99.90
18083;DHT22;9168;51.194;6.840;2023-06-10T14:30:18;26.70;99.90
18083;DHT22;9168;51.194;6.840;2023-06-10T14:32:45;26.70;99.90
18083;DHT22;9168;51.194;6.840;2023-06-10T14:35:13;26.70;99.90
18083;DHT22;9168;51.194;6.840;2023-06-10T14:37:40;26.80;99.90
18083;DHT22;9168;51.194;6.840;2023-06-10T14:40:08;27.10;99.90
18083;DHT22;9168;51.194;6.840;2023-06-10T14:42:35;27.10;99.90
18083;DHT22;9168;51.194;6.840;2023-06-10T14:45:02;27.40;99.90
18083;DHT22;9168;51.194;6.840;2023-06-10T14:47:29;27.70;99.90
18083;DHT22;9168;51.194;6.840;2023-06-10T14:49:55;27.90;99.90
18083;DHT22;9168;51.194;6.840;2023-06-10T14:52:24;28.00;99.90
18083;DHT22;9168;51.194;6.840;2023-06-10T14:54:51;28.10;99.90
18083;DHT22;9168;51.194;6.840;2023-06-10T14:57:17;28.30;99.90
18083;DHT22;9168;51.194;6.840;2023-06-10T14:59:44;28.50;99.90
18083;DHT22;9168;51.194;6.840;2023-06-10T15:02:14;28.70;99.90
18083;DHT22;9168;51.194;6.840;2023-06-10T15:04:41;28.90;99.90
18083;DHT22;9168;51.194;6.840;2023-06-10T15:07:08;29.10;99.90
18083;DHT22;9168;51.194;6.840;2023-06-10T15:09:36;29.30;99.90
18083;DHT22;9168;51.194;6.840;2023-06-10T15:12:03;29.40;99.90
18083;DHT22;9168;51.194;6.840;2023-06-10T15:14:31;29.40;99.90
18083;DHT22;9168;51.194;6.840;2023-06-10T15:16:58;29.30;99.90
18083;DHT22;9168;51.194;6.840;2023-06-10T15:19:25;29.30;99.90
18083;DHT22;9168;51.194;6.840;2023-06-10T15:21:52;29.10;99.90
18083;DHT22;9168;51.194;6.840;2023-06-10T15:24:19;29.10;99.90
18083;DHT22;9168;51.194;6.840;2023-06-10T15:26:47;29.00;99.90
18083;DHT22;9168;51.194;6.840;2023-06-10T15:29:14;29.00;99.90
18083;DHT22;9168;51.194;6.840;2023-06-10T15:31:41;29.00;99.90
18083;DHT22;9168;51.194;6.840;2023-06-10T15:34:08;29.10;99.70
18083;DHT22;9168;51.194;6.840;2023-06-10T15:36:35;29.20;99.90
18083;DHT22;9168;51.194;6.840;2023-06-10T15:39:04;29.20;99.90
18083;DHT22;9168;51.194;6.840;2023-06-10T15:41:32;29.30;99.90
18083;DHT22;9168;51.194;6.840;2023-06-10T15:44:00;29.30;99.90
18083;DHT22;9168;51.194;6.840;2023-06-10T15:46:27;29.30;99.90
18083;DHT22;9168;51.194;6.840;2023-06-10T15:48:55;29.20;99.90
18083;DHT22;9168;51.194;6.840;2023-06-10T15:51:23;29.10;99.90